sensor_id;sensor_type;location;lat;lon;timestamp;P1;durP1;ratioP1;P2;durP2;ratioP2
79212;SDS011;68639;52.380;9.822;2023-12-22T00:01:08;41.77;;;6.27;;
79212;SDS011;68639;52.380;9.822;2023-12-22T00:03:33;38.30;;;5.80;;
79212;SDS011;68639;52.380;9.822;2023-12-22T00:05:58;37.53;;;5.87;;
79212;SDS011;68639;52.380;9.822;2023-12-22T00:08:24;43.20;;;11.40;;
79212;SDS011;68639;52.380;9.822;2023-12-22T00:10:49;35.40;;;5.13;;
79212;SDS011;68639;52.380;9.822;2023-12-22T00:13:14;42.93;;;6.87;;
79212;SDS011;68639;52.380;9.822;2023-12-22T00:15:40;37.17;;;5.43;;
79212;SDS011;68639;52.380;9.822;2023-12-22T00:18:05;35.87;;;5.93;;
79212;SDS011;68639;52.380;9.822;2023-12-22T00:20:30;33.03;;;4.50;;
79212;SDS011;68639;52.380;9.822;2023-12-22T00:22:55;31.80;;;5.80;;
79212;SDS011;68639;52.380;9.822;2023-12-22T00:25:22;46.17;;;15.87;;
79212;SDS011;68639;52.380;9.822;2023-12-22T00:27:47;32.87;;;4.70;;
79212;SDS011;68639;52.380;9.822;2023-12-22T00:30:12;23.00;;;4.43;;
79212;SDS011;68639;52.380;9.822;2023-12-22T00:32:37;34.77;;;5.20;;
79212;SDS011;68639;52.380;9.822;2023-12-22T00:35:02;31.67;;;4.17;;
79212;SDS011;68639;52.380;9.822;2023-12-22T00:37:29;25.37;;;5.13;;
79212;SDS011;68639;52.380;9.822;2023-12-22T00:39:54;32.53;;;4.90;;
79212;SDS011;68639;52.380;9.822;2023-12-22T00:42:20;29.17;;;4.53;;
79212;SDS011;68639;52.380;9.822;2023-12-22T00:44:45;30.37;;;4.90;;
79212;SDS011;68639;52.380;9.822;2023-12-22T00:47:10;26.43;;;4.43;;
79212;SDS011;68639;52.380;9.822;2023-12-22T00:49:35;30.20;;;5.07;;
79212;SDS011;68639;52.380;9.822;2023-12-22T00:52:00;30.27;;;5.47;;
79212;SDS011;68639;52.380;9.822;2023-12-22T00:54:26;20.77;;;4.10;;
79212;SDS011;68639;52.380;9.822;2023-12-22T00:56:52;32.60;;;4.93;;
79212;SDS011;68639;52.380;9.822;2023-12-22T00:59:18;33.83;;;5.27;;
79212;SDS011;68639;52.380;9.822;2023-12-22T01:01:44;28.67;;;4.80;;
79212;SDS011;68639;52.380;9.822;2023-12-22T01:04:09;28.33;;;5.03;;
79212;SDS011;68639;52.380;9.822;2023-12-22T01:06:37;32.97;;;4.80;;
79212;SDS011;68639;52.380;9.822;2023-12-22T01:09:03;31.03;;;5.23;;
79212;SDS011;68639;52.380;9.822;2023-12-22T01:11:28;28.27;;;5.20;;
79212;SDS011;68639;52.380;9.822;2023-12-22T01:13:53;30.03;;;4.87;;
79212;SDS011;68639;52.380;9.822;2023-12-22T01:16:19;33.10;;;5.07;;
79212;SDS011;68639;52.380;9.822;2023-12-22T01:18:46;38.27;;;5.33;;
79212;SDS011;68639;52.380;9.822;2023-12-22T01:21:11;30.07;;;4.57;;
79212;SDS011;68639;52.380;9.822;2023-12-22T01:23:36;33.23;;;4.37;;
79212;SDS011;68639;52.380;9.822;2023-12-22T01:26:02;29.30;;;4.27;;
79212;SDS011;68639;52.380;9.822;2023-12-22T01:28:27;27.63;;;4.87;;
79212;SDS011;68639;52.380;9.822;2023-12-22T01:30:52;23.10;;;3.53;;
79212;SDS011;68639;52.380;9.822;2023-12-22T01:33:17;34.33;;;4.67;;
79212;SDS011;68639;52.380;9.822;2023-12-22T01:35:42;27.10;;;4.27;;
79212;SDS011;68639;52.380;9.822;2023-12-22T01:38:07;31.40;;;3.90;;
79212;SDS011;68639;52.380;9.822;2023-12-22T01:40:33;27.57;;;4.13;;
79212;SDS011;68639;52.380;9.822;2023-12-22T01:42:58;23.87;;;3.60;;
79212;SDS011;68639;52.380;9.822;2023-12-22T01:45:23;26.17;;;4.30;;
79212;SDS011;68639;52.380;9.822;2023-12-22T01:47:48;30.97;;;4.73;;
79212;SDS011;68639;52.380;9.822;2023-12-22T01:50:14;26.53;;;4.13;;
79212;SDS011;68639;52.380;9.822;2023-12-22T01:52:40;27.40;;;4.23;;
79212;SDS011;68639;52.380;9.822;2023-12-22T01:55:05;23.60;;;4.23;;
79212;SDS011;68639;52.380;9.822;2023-12-22T01:57:31;26.10;;;4.53;;
79212;SDS011;68639;52.380;9.822;2023-12-22T01:59:59;27.00;;;4.93;;
79212;SDS011;68639;52.380;9.822;2023-12-22T02:02:24;26.67;;;3.60;;
79212;SDS011;68639;52.380;9.822;2023-12-22T02:04:50;32.53;;;6.03;;
79212;SDS011;68639;52.380;9.822;2023-12-22T02:07:15;27.47;;;4.60;;
79212;SDS011;68639;52.380;9.822;2023-12-22T02:09:40;36.27;;;3.93;;
79212;SDS011;68639;52.380;9.822;2023-12-22T02:12:05;33.83;;;4.97;;
79212;SDS011;68639;52.380;9.822;2023-12-22T02:14:31;32.27;;;4.83;;
79212;SDS011;68639;52.380;9.822;2023-12-22T02:19:32;30.77;;;4.20;;
79212;SDS011;68639;52.380;9.822;2023-12-22T02:22:06;24.17;;;3.83;;
79212;SDS011;68639;52.380;9.822;2023-12-22T02:24:32;24.37;;;4.53;;
79212;SDS011;68639;52.380;9.822;2023-12-22T02:27:04;23.70;;;3.73;;
79212;SDS011;68639;52.380;9.822;2023-12-22T02:29:35;27.50;;;4.10;;
79212;SDS011;68639;52.380;9.822;2023-12-22T02:32:02;25.50;;;3.70;;
79212;SDS011;68639;52.380;9.822;2023-12-22T02:34:31;23.90;;;6.77;;
79212;SDS011;68639;52.380;9.822;2023-12-22T02:36:58;17.80;;;3.10;;
79212;SDS011;68639;52.380;9.822;2023-12-22T02:39:23;16.77;;;3.07;;
79212;SDS011;68639;52.380;9.822;2023-12-22T02:41:48;19.07;;;3.80;;
79212;SDS011;68639;52.380;9.822;2023-12-22T02:44:14;21.83;;;3.00;;
79212;SDS011;68639;52.380;9.822;2023-12-22T02:46:40;16.80;;;2.87;;
79212;SDS011;68639;52.380;9.822;2023-12-22T02:49:06;26.40;;;11.00;;
79212;SDS011;68639;52.380;9.822;2023-12-22T02:51:32;22.03;;;3.23;;
79212;SDS011;68639;52.380;9.822;2023-12-22T02:53:57;14.20;;;2.83;;
79212;SDS011;68639;52.380;9.822;2023-12-22T02:56:22;14.27;;;2.70;;
79212;SDS011;68639;52.380;9.822;2023-12-22T02:58:47;14.37;;;2.17;;
79212;SDS011;68639;52.380;9.822;2023-12-22T03:01:12;13.40;;;2.67;;
79212;SDS011;68639;52.380;9.822;2023-12-22T03:03:37;13.50;;;2.53;;
79212;SDS011;68639;52.380;9.822;2023-12-22T03:06:03;14.07;;;2.40;;
79212;SDS011;68639;52.380;9.822;2023-12-22T03:08:28;15.97;;;2.90;;
79212;SDS011;68639;52.380;9.822;2023-12-22T03:10:53;16.63;;;2.73;;
79212;SDS011;68639;52.380;9.822;2023-12-22T03:13:18;16.30;;;3.00;;
79212;SDS011;68639;52.380;9.822;2023-12-22T03:15:44;17.20;;;2.83;;
79212;SDS011;68639;52.380;9.822;2023-12-22T03:18:09;13.97;;;2.10;;
79212;SDS011;68639;52.380;9.822;2023-12-22T03:20:34;17.30;;;2.83;;
79212;SDS011;68639;52.380;9.822;2023-12-22T03:22:59;26.43;;;2.73;;
79212;SDS011;68639;52.380;9.822;2023-12-22T03:25:24;20.00;;;3.43;;
79212;SDS011;68639;52.380;9.822;2023-12-22T03:27:49;16.97;;;2.60;;
79212;SDS011;68639;52.380;9.822;2023-12-22T03:30:15;23.13;;;3.43;;
79212;SDS011;68639;52.380;9.822;2023-12-22T03:32:40;19.57;;;3.13;;
79212;SDS011;68639;52.380;9.822;2023-12-22T03:35:05;17.13;;;3.33;;
79212;SDS011;68639;52.380;9.822;2023-12-22T03:37:30;17.83;;;3.33;;
79212;SDS011;68639;52.380;9.822;2023-12-22T03:39:56;19.47;;;3.70;;
79212;SDS011;68639;52.380;9.822;2023-12-22T03:42:21;22.50;;;3.73;;
79212;SDS011;68639;52.380;9.822;2023-12-22T03:44:46;28.03;;;3.97;;
79212;SDS011;68639;52.380;9.822;2023-12-22T03:47:11;32.37;;;3.83;;
79212;SDS011;68639;52.380;9.822;2023-12-22T03:49:36;22.13;;;4.00;;
79212;SDS011;68639;52.380;9.822;2023-12-22T03:52:01;23.60;;;4.50;;
79212;SDS011;68639;52.380;9.822;2023-12-22T03:54:27;25.40;;;6.63;;
79212;SDS011;68639;52.380;9.822;2023-12-22T03:56:52;21.83;;;4.13;;
79212;SDS011;68639;52.380;9.822;2023-12-22T03:59:17;28.27;;;4.03;;
79212;SDS011;68639;52.380;9.822;2023-12-22T04:01:43;24.37;;;3.63;;
79212;SDS011;68639;52.380;9.822;2023-12-22T04:04:08;28.83;;;4.40;;
79212;SDS011;68639;52.380;9.822;2023-12-22T04:06:38;30.47;;;4.63;;
79212;SDS011;68639;52.380;9.822;2023-12-22T04:09:03;20.37;;;3.70;;
79212;SDS011;68639;52.380;9.822;2023-12-22T04:11:28;20.17;;;3.30;;
79212;SDS011;68639;52.380;9.822;2023-12-22T04:13:53;19.67;;;2.90;;
79212;SDS011;68639;52.380;9.822;2023-12-22T04:16:18;20.63;;;2.90;;
79212;SDS011;68639;52.380;9.822;2023-12-22T04:18:43;17.93;;;3.27;;
79212;SDS011;68639;52.380;9.822;2023-12-22T04:21:09;13.70;;;2.83;;
79212;SDS011;68639;52.380;9.822;2023-12-22T04:23:34;19.97;;;3.50;;
79212;SDS011;68639;52.380;9.822;2023-12-22T04:25:59;20.50;;;3.03;;
79212;SDS011;68639;52.380;9.822;2023-12-22T04:28:24;25.40;;;5.27;;
79212;SDS011;68639;52.380;9.822;2023-12-22T04:30:50;39.80;;;14.43;;
79212;SDS011;68639;52.380;9.822;2023-12-22T04:33:15;29.33;;;4.53;;
79212;SDS011;68639;52.380;9.822;2023-12-22T04:35:40;30.03;;;4.23;;
79212;SDS011;68639;52.380;9.822;2023-12-22T04:38:06;36.60;;;5.57;;
79212;SDS011;68639;52.380;9.822;2023-12-22T04:40:31;41.53;;;5.00;;
79212;SDS011;68639;52.380;9.822;2023-12-22T04:42:56;33.10;;;5.50;;
79212;SDS011;68639;52.380;9.822;2023-12-22T04:45:21;34.90;;;6.67;;
79212;SDS011;68639;52.380;9.822;2023-12-22T04:47:46;35.73;;;5.00;;
79212;SDS011;68639;52.380;9.822;2023-12-22T04:50:11;32.93;;;4.73;;
79212;SDS011;68639;52.380;9.822;2023-12-22T04:52:37;31.07;;;3.97;;
79212;SDS011;68639;52.380;9.822;2023-12-22T04:55:02;30.30;;;4.57;;
79212;SDS011;68639;52.380;9.822;2023-12-22T04:57:27;29.97;;;4.87;;
79212;SDS011;68639;52.380;9.822;2023-12-22T04:59:52;27.50;;;3.50;;
79212;SDS011;68639;52.380;9.822;2023-12-22T05:02:17;25.93;;;3.93;;
79212;SDS011;68639;52.380;9.822;2023-12-22T05:04:43;17.83;;;3.13;;
79212;SDS011;68639;52.380;9.822;2023-12-22T05:07:08;20.10;;;3.73;;
79212;SDS011;68639;52.380;9.822;2023-12-22T05:09:34;27.83;;;4.23;;
79212;SDS011;68639;52.380;9.822;2023-12-22T05:11:59;25.27;;;4.97;;
79212;SDS011;68639;52.380;9.822;2023-12-22T05:14:25;30.57;;;4.47;;
79212;SDS011;68639;52.380;9.822;2023-12-22T05:16:50;31.30;;;4.83;;
79212;SDS011;68639;52.380;9.822;2023-12-22T05:19:20;34.53;;;4.50;;
79212;SDS011;68639;52.380;9.822;2023-12-22T05:21:45;30.47;;;4.33;;
79212;SDS011;68639;52.380;9.822;2023-12-22T05:24:10;28.00;;;4.17;;
79212;SDS011;68639;52.380;9.822;2023-12-22T05:26:35;29.87;;;4.03;;
79212;SDS011;68639;52.380;9.822;2023-12-22T05:29:00;30.27;;;4.27;;
79212;SDS011;68639;52.380;9.822;2023-12-22T05:31:25;27.00;;;4.70;;
79212;SDS011;68639;52.380;9.822;2023-12-22T05:33:51;40.03;;;5.20;;
79212;SDS011;68639;52.380;9.822;2023-12-22T05:36:17;28.27;;;4.53;;
79212;SDS011;68639;52.380;9.822;2023-12-22T05:38:42;29.37;;;4.73;;
79212;SDS011;68639;52.380;9.822;2023-12-22T05:41:07;28.00;;;4.13;;
79212;SDS011;68639;52.380;9.822;2023-12-22T05:43:32;21.60;;;3.20;;
79212;SDS011;68639;52.380;9.822;2023-12-22T05:45:58;26.27;;;4.53;;
79212;SDS011;68639;52.380;9.822;2023-12-22T05:48:23;28.70;;;3.10;;
79212;SDS011;68639;52.380;9.822;2023-12-22T05:50:48;21.80;;;4.30;;
79212;SDS011;68639;52.380;9.822;2023-12-22T05:53:14;25.57;;;4.40;;
79212;SDS011;68639;52.380;9.822;2023-12-22T05:55:40;29.17;;;4.43;;
79212;SDS011;68639;52.380;9.822;2023-12-22T05:58:05;29.80;;;3.83;;
79212;SDS011;68639;52.380;9.822;2023-12-22T06:00:30;29.03;;;3.67;;
79212;SDS011;68639;52.380;9.822;2023-12-22T06:02:56;25.83;;;3.60;;
79212;SDS011;68639;52.380;9.822;2023-12-22T06:05:21;23.57;;;3.27;;
79212;SDS011;68639;52.380;9.822;2023-12-22T06:07:46;16.50;;;3.53;;
79212;SDS011;68639;52.380;9.822;2023-12-22T06:10:12;29.83;;;4.17;;
79212;SDS011;68639;52.380;9.822;2023-12-22T06:12:37;32.43;;;9.90;;
79212;SDS011;68639;52.380;9.822;2023-12-22T06:15:02;22.93;;;3.57;;
79212;SDS011;68639;52.380;9.822;2023-12-22T06:17:28;25.40;;;4.03;;
79212;SDS011;68639;52.380;9.822;2023-12-22T06:19:53;27.00;;;3.70;;
79212;SDS011;68639;52.380;9.822;2023-12-22T06:22:18;26.50;;;3.70;;
79212;SDS011;68639;52.380;9.822;2023-12-22T06:24:43;27.90;;;3.33;;
79212;SDS011;68639;52.380;9.822;2023-12-22T06:27:09;23.60;;;3.40;;
79212;SDS011;68639;52.380;9.822;2023-12-22T06:29:34;18.57;;;4.13;;
79212;SDS011;68639;52.380;9.822;2023-12-22T06:32:00;16.47;;;2.57;;
79212;SDS011;68639;52.380;9.822;2023-12-22T06:34:25;8.40;;;1.43;;
79212;SDS011;68639;52.380;9.822;2023-12-22T06:36:50;12.00;;;3.63;;
79212;SDS011;68639;52.380;9.822;2023-12-22T06:39:16;15.07;;;1.97;;
79212;SDS011;68639;52.380;9.822;2023-12-22T06:41:41;6.60;;;1.23;;
79212;SDS011;68639;52.380;9.822;2023-12-22T06:44:06;9.37;;;1.40;;
79212;SDS011;68639;52.380;9.822;2023-12-22T06:46:32;5.83;;;1.30;;
79212;SDS011;68639;52.380;9.822;2023-12-22T06:48:57;7.27;;;1.27;;
79212;SDS011;68639;52.380;9.822;2023-12-22T06:51:29;9.80;;;1.67;;
79212;SDS011;68639;52.380;9.822;2023-12-22T06:54:01;10.63;;;1.43;;
79212;SDS011;68639;52.380;9.822;2023-12-22T06:56:30;7.00;;;1.67;;
79212;SDS011;68639;52.380;9.822;2023-12-22T06:58:55;7.30;;;1.33;;
79212;SDS011;68639;52.380;9.822;2023-12-22T07:01:23;10.50;;;1.77;;
79212;SDS011;68639;52.380;9.822;2023-12-22T07:03:48;11.83;;;1.80;;
79212;SDS011;68639;52.380;9.822;2023-12-22T07:06:14;7.33;;;1.33;;
79212;SDS011;68639;52.380;9.822;2023-12-22T07:08:40;7.63;;;1.40;;
79212;SDS011;68639;52.380;9.822;2023-12-22T07:11:05;8.40;;;0.90;;
79212;SDS011;68639;52.380;9.822;2023-12-22T07:13:30;11.17;;;1.50;;
79212;SDS011;68639;52.380;9.822;2023-12-22T07:15:55;8.57;;;1.87;;
79212;SDS011;68639;52.380;9.822;2023-12-22T07:18:21;11.63;;;2.13;;
79212;SDS011;68639;52.380;9.822;2023-12-22T07:20:46;12.27;;;1.93;;
79212;SDS011;68639;52.380;9.822;2023-12-22T07:23:11;15.90;;;2.30;;
79212;SDS011;68639;52.380;9.822;2023-12-22T07:25:36;24.53;;;3.00;;
79212;SDS011;68639;52.380;9.822;2023-12-22T07:28:03;17.67;;;3.00;;
79212;SDS011;68639;52.380;9.822;2023-12-22T07:30:29;21.43;;;2.90;;
79212;SDS011;68639;52.380;9.822;2023-12-22T07:32:54;15.60;;;2.17;;
79212;SDS011;68639;52.380;9.822;2023-12-22T07:35:19;16.07;;;2.37;;
79212;SDS011;68639;52.380;9.822;2023-12-22T07:37:44;11.43;;;1.90;;
79212;SDS011;68639;52.380;9.822;2023-12-22T07:40:10;12.93;;;2.57;;
79212;SDS011;68639;52.380;9.822;2023-12-22T07:42:35;11.93;;;2.23;;
79212;SDS011;68639;52.380;9.822;2023-12-22T07:45:01;19.20;;;2.80;;
79212;SDS011;68639;52.380;9.822;2023-12-22T07:47:28;15.43;;;2.70;;
79212;SDS011;68639;52.380;9.822;2023-12-22T07:49:53;21.10;;;3.07;;
79212;SDS011;68639;52.380;9.822;2023-12-22T07:52:18;25.73;;;3.27;;
79212;SDS011;68639;52.380;9.822;2023-12-22T07:54:43;20.87;;;3.77;;
79212;SDS011;68639;52.380;9.822;2023-12-22T07:57:08;25.43;;;4.07;;
79212;SDS011;68639;52.380;9.822;2023-12-22T07:59:35;36.67;;;7.20;;
79212;SDS011;68639;52.380;9.822;2023-12-22T08:02:00;22.63;;;3.70;;
79212;SDS011;68639;52.380;9.822;2023-12-22T08:04:25;25.70;;;4.20;;
79212;SDS011;68639;52.380;9.822;2023-12-22T08:06:50;28.63;;;4.30;;
79212;SDS011;68639;52.380;9.822;2023-12-22T08:09:17;16.33;;;2.67;;
79212;SDS011;68639;52.380;9.822;2023-12-22T08:11:42;22.90;;;2.73;;
79212;SDS011;68639;52.380;9.822;2023-12-22T08:14:07;19.50;;;3.60;;
79212;SDS011;68639;52.380;9.822;2023-12-22T08:16:32;18.90;;;2.93;;
79212;SDS011;68639;52.380;9.822;2023-12-22T08:18:57;24.60;;;3.93;;
79212;SDS011;68639;52.380;9.822;2023-12-22T08:21:22;36.03;;;4.50;;
79212;SDS011;68639;52.380;9.822;2023-12-22T08:23:48;37.77;;;5.43;;
79212;SDS011;68639;52.380;9.822;2023-12-22T08:26:13;40.27;;;6.10;;
79212;SDS011;68639;52.380;9.822;2023-12-22T08:28:42;32.67;;;5.33;;
79212;SDS011;68639;52.380;9.822;2023-12-22T08:31:07;28.27;;;4.67;;
79212;SDS011;68639;52.380;9.822;2023-12-22T08:33:32;33.07;;;6.07;;
79212;SDS011;68639;52.380;9.822;2023-12-22T08:35:57;46.10;;;17.97;;
79212;SDS011;68639;52.380;9.822;2023-12-22T08:38:22;31.93;;;4.67;;
79212;SDS011;68639;52.380;9.822;2023-12-22T08:40:48;41.67;;;5.53;;
79212;SDS011;68639;52.380;9.822;2023-12-22T08:43:13;34.63;;;4.73;;
79212;SDS011;68639;52.380;9.822;2023-12-22T08:45:39;29.00;;;4.87;;
79212;SDS011;68639;52.380;9.822;2023-12-22T08:48:04;26.13;;;4.63;;
79212;SDS011;68639;52.380;9.822;2023-12-22T08:50:32;31.77;;;4.50;;
79212;SDS011;68639;52.380;9.822;2023-12-22T08:52:57;36.70;;;5.37;;
79212;SDS011;68639;52.380;9.822;2023-12-22T08:55:23;35.43;;;7.90;;
79212;SDS011;68639;52.380;9.822;2023-12-22T08:57:48;42.60;;;4.50;;
79212;SDS011;68639;52.380;9.822;2023-12-22T09:00:13;34.17;;;4.20;;
79212;SDS011;68639;52.380;9.822;2023-12-22T09:02:39;27.10;;;3.77;;
79212;SDS011;68639;52.380;9.822;2023-12-22T09:05:04;32.87;;;4.93;;
79212;SDS011;68639;52.380;9.822;2023-12-22T09:07:31;29.90;;;3.67;;
79212;SDS011;68639;52.380;9.822;2023-12-22T09:09:56;33.13;;;3.80;;
79212;SDS011;68639;52.380;9.822;2023-12-22T09:12:21;27.73;;;4.93;;
79212;SDS011;68639;52.380;9.822;2023-12-22T09:14:47;26.77;;;4.00;;
79212;SDS011;68639;52.380;9.822;2023-12-22T09:17:13;29.17;;;5.40;;
79212;SDS011;68639;52.380;9.822;2023-12-22T09:19:38;32.33;;;4.20;;
79212;SDS011;68639;52.380;9.822;2023-12-22T09:22:04;33.43;;;5.17;;
79212;SDS011;68639;52.380;9.822;2023-12-22T09:24:29;25.77;;;3.87;;
79212;SDS011;68639;52.380;9.822;2023-12-22T09:26:54;28.07;;;4.37;;
79212;SDS011;68639;52.380;9.822;2023-12-22T09:29:19;37.60;;;4.47;;
79212;SDS011;68639;52.380;9.822;2023-12-22T09:31:46;27.10;;;3.97;;
79212;SDS011;68639;52.380;9.822;2023-12-22T09:34:11;28.70;;;4.27;;
79212;SDS011;68639;52.380;9.822;2023-12-22T09:36:36;26.40;;;4.23;;
79212;SDS011;68639;52.380;9.822;2023-12-22T09:39:02;28.87;;;3.60;;
79212;SDS011;68639;52.380;9.822;2023-12-22T09:41:27;24.00;;;3.77;;
79212;SDS011;68639;52.380;9.822;2023-12-22T09:43:53;23.07;;;3.77;;
79212;SDS011;68639;52.380;9.822;2023-12-22T09:46:21;25.63;;;4.93;;
79212;SDS011;68639;52.380;9.822;2023-12-22T09:48:46;24.27;;;3.97;;
79212;SDS011;68639;52.380;9.822;2023-12-22T09:51:11;27.83;;;4.20;;
79212;SDS011;68639;52.380;9.822;2023-12-22T09:53:39;22.93;;;4.53;;
79212;SDS011;68639;52.380;9.822;2023-12-22T09:56:05;17.60;;;3.33;;
79212;SDS011;68639;52.380;9.822;2023-12-22T09:58:30;16.30;;;2.83;;
79212;SDS011;68639;52.380;9.822;2023-12-22T10:00:56;14.17;;;2.30;;
79212;SDS011;68639;52.380;9.822;2023-12-22T10:03:21;16.80;;;2.80;;
79212;SDS011;68639;52.380;9.822;2023-12-22T10:05:49;14.17;;;2.43;;
79212;SDS011;68639;52.380;9.822;2023-12-22T10:08:14;17.87;;;2.33;;
79212;SDS011;68639;52.380;9.822;2023-12-22T10:10:40;13.33;;;2.57;;
79212;SDS011;68639;52.380;9.822;2023-12-22T10:13:06;22.33;;;2.47;;
79212;SDS011;68639;52.380;9.822;2023-12-22T10:15:35;13.80;;;2.50;;
79212;SDS011;68639;52.380;9.822;2023-12-22T10:18:00;14.20;;;2.50;;
79212;SDS011;68639;52.380;9.822;2023-12-22T10:20:26;11.10;;;1.90;;
79212;SDS011;68639;52.380;9.822;2023-12-22T10:22:51;15.10;;;2.10;;
79212;SDS011;68639;52.380;9.822;2023-12-22T10:25:19;14.63;;;2.23;;
79212;SDS011;68639;52.380;9.822;2023-12-22T10:27:44;13.80;;;2.03;;
79212;SDS011;68639;52.380;9.822;2023-12-22T10:30:10;13.50;;;2.43;;
79212;SDS011;68639;52.380;9.822;2023-12-22T10:32:41;12.37;;;2.00;;
79212;SDS011;68639;52.380;9.822;2023-12-22T10:35:09;19.10;;;2.93;;
79212;SDS011;68639;52.380;9.822;2023-12-22T10:37:35;17.90;;;2.33;;
79212;SDS011;68639;52.380;9.822;2023-12-22T10:40:03;20.23;;;3.03;;
79212;SDS011;68639;52.380;9.822;2023-12-22T10:42:28;19.17;;;3.00;;
79212;SDS011;68639;52.380;9.822;2023-12-22T10:44:54;24.07;;;3.43;;
79212;SDS011;68639;52.380;9.822;2023-12-22T10:47:20;22.27;;;3.13;;
79212;SDS011;68639;52.380;9.822;2023-12-22T10:49:46;28.83;;;4.20;;
79212;SDS011;68639;52.380;9.822;2023-12-22T10:52:15;17.83;;;3.10;;
79212;SDS011;68639;52.380;9.822;2023-12-22T10:54:41;24.43;;;3.10;;
79212;SDS011;68639;52.380;9.822;2023-12-22T10:57:06;22.73;;;3.00;;
79212;SDS011;68639;52.380;9.822;2023-12-22T10:59:32;19.87;;;2.97;;
79212;SDS011;68639;52.380;9.822;2023-12-22T11:02:00;20.70;;;3.53;;
79212;SDS011;68639;52.380;9.822;2023-12-22T11:04:29;25.20;;;3.73;;
79212;SDS011;68639;52.380;9.822;2023-12-22T11:06:54;24.47;;;3.90;;
79212;SDS011;68639;52.380;9.822;2023-12-22T11:09:22;24.37;;;4.03;;
79212;SDS011;68639;52.380;9.822;2023-12-22T11:11:48;24.60;;;3.20;;
79212;SDS011;68639;52.380;9.822;2023-12-22T11:14:14;23.83;;;3.63;;
79212;SDS011;68639;52.380;9.822;2023-12-22T11:16:39;30.77;;;5.17;;
79212;SDS011;68639;52.380;9.822;2023-12-22T11:19:06;22.03;;;3.43;;
79212;SDS011;68639;52.380;9.822;2023-12-22T11:21:31;23.67;;;3.70;;
79212;SDS011;68639;52.380;9.822;2023-12-22T11:23:57;30.50;;;3.90;;
79212;SDS011;68639;52.380;9.822;2023-12-22T11:26:23;32.63;;;3.87;;
79212;SDS011;68639;52.380;9.822;2023-12-22T11:28:49;23.37;;;3.87;;
79212;SDS011;68639;52.380;9.822;2023-12-22T11:31:15;18.20;;;3.20;;
79212;SDS011;68639;52.380;9.822;2023-12-22T11:33:43;20.73;;;3.50;;
79212;SDS011;68639;52.380;9.822;2023-12-22T11:36:08;18.13;;;3.37;;
79212;SDS011;68639;52.380;9.822;2023-12-22T11:38:34;28.03;;;4.13;;
79212;SDS011;68639;52.380;9.822;2023-12-22T11:40:59;24.63;;;3.60;;
79212;SDS011;68639;52.380;9.822;2023-12-22T11:43:25;19.87;;;2.87;;
79212;SDS011;68639;52.380;9.822;2023-12-22T11:45:51;19.40;;;3.70;;
79212;SDS011;68639;52.380;9.822;2023-12-22T11:48:16;24.47;;;3.10;;
79212;SDS011;68639;52.380;9.822;2023-12-22T11:50:41;27.10;;;3.60;;
79212;SDS011;68639;52.380;9.822;2023-12-22T11:53:20;30.17;;;4.47;;
79212;SDS011;68639;52.380;9.822;2023-12-22T11:55:58;26.73;;;3.40;;
79212;SDS011;68639;52.380;9.822;2023-12-22T11:58:57;20.57;;;2.70;;
79212;SDS011;68639;52.380;9.822;2023-12-22T12:01:24;17.23;;;3.10;;
79212;SDS011;68639;52.380;9.822;2023-12-22T12:03:50;24.43;;;3.93;;
79212;SDS011;68639;52.380;9.822;2023-12-22T12:06:21;22.47;;;3.33;;
79212;SDS011;68639;52.380;9.822;2023-12-22T12:08:46;26.07;;;3.50;;
79212;SDS011;68639;52.380;9.822;2023-12-22T12:11:13;17.27;;;2.80;;
79212;SDS011;68639;52.380;9.822;2023-12-22T12:13:41;21.87;;;3.70;;
79212;SDS011;68639;52.380;9.822;2023-12-22T12:16:07;22.40;;;3.50;;
79212;SDS011;68639;52.380;9.822;2023-12-22T12:18:33;30.27;;;8.07;;
79212;SDS011;68639;52.380;9.822;2023-12-22T12:20:59;23.03;;;3.00;;
79212;SDS011;68639;52.380;9.822;2023-12-22T12:23:25;24.67;;;4.07;;
79212;SDS011;68639;52.380;9.822;2023-12-22T12:25:51;24.57;;;3.27;;
79212;SDS011;68639;52.380;9.822;2023-12-22T12:28:16;23.67;;;3.97;;
79212;SDS011;68639;52.380;9.822;2023-12-22T12:30:43;23.57;;;3.27;;
79212;SDS011;68639;52.380;9.822;2023-12-22T12:33:09;21.80;;;3.27;;
79212;SDS011;68639;52.380;9.822;2023-12-22T12:35:34;20.70;;;3.80;;
79212;SDS011;68639;52.380;9.822;2023-12-22T12:38:00;27.33;;;4.13;;
79212;SDS011;68639;52.380;9.822;2023-12-22T12:40:25;25.30;;;4.17;;
79212;SDS011;68639;52.380;9.822;2023-12-22T12:42:52;20.57;;;3.27;;
79212;SDS011;68639;52.380;9.822;2023-12-22T12:45:21;25.00;;;3.00;;
79212;SDS011;68639;52.380;9.822;2023-12-22T12:47:54;21.53;;;3.47;;
79212;SDS011;68639;52.380;9.822;2023-12-22T12:50:22;15.47;;;2.97;;
79212;SDS011;68639;52.380;9.822;2023-12-22T12:52:48;17.53;;;3.10;;
79212;SDS011;68639;52.380;9.822;2023-12-22T12:55:16;19.57;;;2.77;;
79212;SDS011;68639;52.380;9.822;2023-12-22T12:57:41;21.63;;;3.03;;
79212;SDS011;68639;52.380;9.822;2023-12-22T13:00:07;15.73;;;2.43;;
79212;SDS011;68639;52.380;9.822;2023-12-22T13:02:33;19.70;;;2.50;;
79212;SDS011;68639;52.380;9.822;2023-12-22T13:05:00;21.60;;;3.33;;
79212;SDS011;68639;52.380;9.822;2023-12-22T13:07:29;13.03;;;1.90;;
79212;SDS011;68639;52.380;9.822;2023-12-22T13:09:54;15.93;;;2.30;;
79212;SDS011;68639;52.380;9.822;2023-12-22T13:12:21;16.13;;;2.30;;
79212;SDS011;68639;52.380;9.822;2023-12-22T13:14:47;9.73;;;1.70;;
79212;SDS011;68639;52.380;9.822;2023-12-22T13:17:12;11.07;;;2.10;;
79212;SDS011;68639;52.380;9.822;2023-12-22T13:19:37;12.10;;;2.50;;
79212;SDS011;68639;52.380;9.822;2023-12-22T13:22:03;10.97;;;2.53;;
79212;SDS011;68639;52.380;9.822;2023-12-22T13:24:28;16.27;;;2.40;;
79212;SDS011;68639;52.380;9.822;2023-12-22T13:27:00;12.97;;;1.97;;
79212;SDS011;68639;52.380;9.822;2023-12-22T13:29:28;11.03;;;1.90;;
79212;SDS011;68639;52.380;9.822;2023-12-22T13:31:54;14.27;;;1.97;;
79212;SDS011;68639;52.380;9.822;2023-12-22T13:34:19;11.30;;;2.43;;
79212;SDS011;68639;52.380;9.822;2023-12-22T13:36:44;14.13;;;2.13;;
79212;SDS011;68639;52.380;9.822;2023-12-22T13:39:09;12.53;;;2.50;;
79212;SDS011;68639;52.380;9.822;2023-12-22T13:41:40;14.47;;;2.80;;
79212;SDS011;68639;52.380;9.822;2023-12-22T13:44:10;12.10;;;1.97;;
79212;SDS011;68639;52.380;9.822;2023-12-22T13:46:36;11.87;;;1.80;;
79212;SDS011;68639;52.380;9.822;2023-12-22T13:49:02;16.33;;;2.60;;
79212;SDS011;68639;52.380;9.822;2023-12-22T13:51:37;12.73;;;2.20;;
79212;SDS011;68639;52.380;9.822;2023-12-22T13:54:02;13.57;;;2.10;;
79212;SDS011;68639;52.380;9.822;2023-12-22T13:56:32;10.67;;;1.73;;
79212;SDS011;68639;52.380;9.822;2023-12-22T13:59:00;15.20;;;2.47;;
79212;SDS011;68639;52.380;9.822;2023-12-22T14:01:25;17.40;;;2.70;;
79212;SDS011;68639;52.380;9.822;2023-12-22T14:03:50;18.67;;;3.27;;
79212;SDS011;68639;52.380;9.822;2023-12-22T14:06:15;13.90;;;2.87;;
79212;SDS011;68639;52.380;9.822;2023-12-22T14:08:41;19.50;;;1.90;;
79212;SDS011;68639;52.380;9.822;2023-12-22T14:11:07;16.07;;;2.30;;
79212;SDS011;68639;52.380;9.822;2023-12-22T14:13:32;13.97;;;2.30;;
79212;SDS011;68639;52.380;9.822;2023-12-22T14:15:57;20.37;;;2.43;;
79212;SDS011;68639;52.380;9.822;2023-12-22T14:18:23;13.53;;;2.30;;
79212;SDS011;68639;52.380;9.822;2023-12-22T14:20:48;17.50;;;2.87;;
79212;SDS011;68639;52.380;9.822;2023-12-22T14:23:13;15.67;;;2.53;;
79212;SDS011;68639;52.380;9.822;2023-12-22T14:25:41;11.17;;;2.00;;
79212;SDS011;68639;52.380;9.822;2023-12-22T14:28:07;16.67;;;2.67;;
79212;SDS011;68639;52.380;9.822;2023-12-22T14:30:32;12.47;;;2.30;;